Time;durP1;ratioP1;P1;durP2;ratioP2;P2;SDS_P1;SDS_P2;PMS_P1;PMS_P2;Temp;Humidity;BMP_temperature;BMP_pressure;BME280_temperature;BME280_humidity;BME280_pressure;Samples;Min_cycle;Max_cycle;Signal;HPM_P1;HPM_P2
2022/11/05 00:11:11;;;;;;;2.15;1.10;;;21.30;57.10;;;;;;5057020;28;20071;-49
2022/11/05 00:19:08;;;;;;;1.40;0.80;;;21.30;57.00;;;;;;5053843;28;20028;-44
2022/11/05 00:27:07;;;;;;;1.92;0.75;;;21.30;56.90;;;;;;5055166;28;20044;-49
2022/11/05 00:29:33;;;;;;;2.70;1.02;;;21.30;57.00;;;;;;5053255;28;20044;-44
2022/11/05 00:31:59;;;;;;;3.50;1.10;;;21.30;56.90;;;;;;5041310;28;20037;-45
2022/11/05 00:34:24;;;;;;;0.95;0.70;;;21.20;56.80;;;;;;5033982;28;20033;-44
2022/11/05 00:36:50;;;;;;;1.52;1.13;;;21.20;56.80;;;;;;5053475;28;20021;-44
2022/11/05 00:39:16;;;;;;;1.15;0.98;;;21.30;56.90;;;;;;5052431;28;20063;-44
2022/11/05 00:41:41;;;;;;;2.92;1.52;;;21.20;56.80;;;;;;5053596;28;20032;-44
2022/11/05 00:49:28;;;;;;;1.50;0.88;;;21.20;56.80;;;;;;5053909;28;20028;-44
2022/11/05 00:49:37;;;;;;;3.13;1.15;;;21.20;56.80;;;;;;5052630;28;20033;-44
2022/11/05 00:54:47;;;;;;;1.50;0.88;;;21.20;56.70;;;;;;5052597;28;20032;-44
2022/11/05 00:57:12;;;;;;;2.47;1.00;;;21.20;56.70;;;;;;5052649;28;20017;-44
2022/11/05 00:59:38;;;;;;;0.93;0.80;;;21.20;56.70;;;;;;5052937;28;20025;-44
2022/11/05 01:02:03;;;;;;;1.52;0.90;;;21.20;56.70;;;;;;5054268;28;20369;-44
2022/11/05 01:04:29;;;;;;;2.00;1.00;;;21.20;56.70;;;;;;5054661;28;20094;-44
2022/11/05 01:06:54;;;;;;;0.63;0.60;;;21.20;56.70;;;;;;5052621;28;20056;-44
2022/11/05 01:09:20;;;;;;;1.58;0.95;;;21.20;56.70;;;;;;5048889;28;20021;-44
2022/11/05 01:11:46;;;;;;;2.03;1.23;;;21.20;56.70;;;;;;5052860;28;20029;-44
2022/11/05 01:14:16;;;;;;;1.65;1.00;;;21.20;56.70;;;;;;5051529;28;20031;-48
2022/11/05 01:16:44;;;;;;;2.40;0.95;;;21.20;56.70;;;;;;5052787;28;20056;-44
2022/11/05 01:19:10;;;;;;;1.15;0.88;;;21.20;56.70;;;;;;5051622;28;20086;-49
2022/11/05 01:21:36;;;;;;;1.35;0.90;;;21.20;56.60;;;;;;5052259;28;20086;-44
2022/11/05 01:24:02;;;;;;;1.27;0.90;;;21.20;56.70;;;;;;5052509;28;20017;-44
2022/11/05 01:26:28;;;;;;;1.05;0.70;;;21.20;56.70;;;;;;5051416;28;20091;-44
2022/11/05 01:28:56;;;;;;;1.80;0.90;;;21.20;56.70;;;;;;5052745;28;20031;-44
2022/11/05 01:31:22;;;;;;;1.13;0.77;;;21.20;56.60;;;;;;5040884;28;20041;-44
2022/11/05 01:33:48;;;;;;;1.23;0.68;;;21.20;56.60;;;;;;5048366;28;20064;-44
2022/11/05 01:36:13;;;;;;;1.10;0.70;;;21.20;56.70;;;;;;5051401;28;20056;-44
2022/11/05 01:38:39;;;;;;;1.15;0.63;;;21.20;56.60;;;;;;5052538;28;20048;-45
2022/11/05 01:41:05;;;;;;;1.17;0.68;;;21.20;56.60;;;;;;5052079;28;20455;-44
2022/11/05 01:43:56;;;;;;;1.27;0.70;;;21.10;56.50;;;;;;5051588;28;20028;-43
2022/11/05 01:46:28;;;;;;;0.85;0.80;;;21.20;56.60;;;;;;5049805;28;20155;-44
2022/11/05 01:48:59;;;;;;;3.67;1.25;;;21.20;56.60;;;;;;5052625;28;20075;-44
2022/11/05 01:51:27;;;;;;;1.73;0.93;;;21.20;56.60;;;;;;5054327;28;20060;-44
2022/11/05 01:54:21;;;;;;;1.60;0.80;;;21.20;56.60;;;;;;5042055;28;20030;-44
2022/11/05 01:56:52;;;;;;;1.33;1.23;;;21.20;56.60;;;;;;5037631;28;20033;-44
2022/11/05 01:59:26;;;;;;;1.13;1.02;;;21.20;56.60;;;;;;5051328;28;20413;-44
2022/11/05 02:01:53;;;;;;;0.90;0.65;;;21.20;56.60;;;;;;5051776;28;20351;-44
2022/11/05 02:04:43;;;;;;;1.55;0.70;;;21.20;56.60;;;;;;5050547;28;20374;-44
2022/11/05 02:07:10;;;;;;;0.93;0.80;;;21.20;56.60;;;;;;5051337;28;20013;-49
2022/11/05 02:09:47;;;;;;;0.98;0.60;;;21.10;56.50;;;;;;5058839;28;20032;-44
2022/11/05 02:12:13;;;;;;;1.25;0.82;;;21.10;56.50;;;;;;5050913;28;20032;-44
2022/11/05 02:14:39;;;;;;;1.42;0.70;;;21.10;56.60;;;;;;5051575;28;20492;-44
2022/11/05 02:17:19;;;;;;;1.45;0.95;;;21.10;56.50;;;;;;5044102;28;20032;-44
2022/11/05 02:20:01;;;;;;;2.00;0.82;;;21.10;56.50;;;;;;5051025;28;20056;-44
2022/11/05 02:23:04;;;;;;;1.58;0.77;;;21.10;56.50;;;;;;5049383;28;20624;-44
2022/11/05 02:25:58;;;;;;;1.48;0.70;;;21.10;56.50;;;;;;5050614;28;20033;-44
2022/11/05 02:28:57;;;;;;;0.73;0.70;;;21.10;56.50;;;;;;5050784;28;20032;-44
2022/11/05 02:31:40;;;;;;;0.93;0.60;;;21.10;56.50;;;;;;5048630;28;20061;-44
2022/11/05 02:34:31;;;;;;;1.33;0.63;;;21.10;56.50;;;;;;5059863;28;20091;-44
2022/11/05 02:37:21;;;;;;;1.38;0.88;;;21.10;56.50;;;;;;5051121;28;20108;-44
2022/11/05 02:39:53;;;;;;;0.82;0.60;;;21.10;56.50;;;;;;5051867;28;20025;-44
2022/11/05 02:42:44;;;;;;;0.90;0.60;;;21.10;56.50;;;;;;5054764;28;20016;-44
2022/11/05 02:45:15;;;;;;;1.33;0.90;;;21.10;56.50;;;;;;5054698;28;20366;-48
2022/11/05 02:47:43;;;;;;;1.20;0.80;;;21.10;56.50;;;;;;5050315;28;20037;-44
2022/11/05 02:50:47;;;;;;;1.23;0.75;;;21.10;56.50;;;;;;5058171;28;20041;-48
2022/11/05 02:53:37;;;;;;;1.25;0.73;;;21.10;56.50;;;;;;5054668;28;20024;-44
2022/11/05 02:56:13;;;;;;;2.45;0.80;;;21.10;56.40;;;;;;5055119;28;20023;-44
2022/11/05 02:58:38;;;;;;;0.68;0.57;;;21.10;56.50;;;;;;5055351;28;20458;-44
2022/11/05 03:01:05;;;;;;;0.98;0.60;;;21.10;56.50;;;;;;5054888;28;20048;-44
2022/11/05 03:03:36;;;;;;;0.75;0.75;;;21.10;57.10;;;;;;5054580;28;20033;-44
2022/11/05 03:06:32;;;;;;;0.73;0.63;;;21.10;56.50;;;;;;5056585;28;20464;-44
2022/11/05 03:09:34;;;;;;;0.85;0.60;;;21.10;56.50;;;;;;5055129;28;20021;-44
2022/11/05 03:12:06;;;;;;;0.80;0.60;;;21.10;56.50;;;;;;5055240;28;20043;-44
2022/11/05 03:14:56;;;;;;;1.25;0.60;;;21.10;56.50;;;;;;5054100;28;20021;-44
2022/11/05 03:17:46;;;;;;;1.77;0.68;;;21.10;56.50;;;;;;5044722;28;20087;-44
2022/11/05 03:20:37;;;;;;;1.08;0.98;;;21.10;56.50;;;;;;5053172;28;20540;-44
2022/11/05 03:23:38;;;;;;;0.68;0.57;;;21.10;56.50;;;;;;5049323;28;20024;-44
2022/11/05 03:26:19;;;;;;;0.93;0.50;;;21.10;56.50;;;;;;5036221;28;20072;-44
2022/11/05 03:28:51;;;;;;;0.60;0.55;;;21.10;56.50;;;;;;5050845;28;20096;-44
2022/11/05 03:31:19;;;;;;;1.08;0.77;;;21.10;56.50;;;;;;5053764;28;20085;-44
2022/11/05 03:33:47;;;;;;;1.08;0.70;;;21.10;56.50;;;;;;5054143;28;20041;-44
2022/11/05 03:36:22;;;;;;;0.75;0.60;;;21.10;56.50;;;;;;5053616;28;20044;-44
2022/11/05 03:38:52;;;;;;;1.17;0.47;;;21.10;56.50;;;;;;5054798;28;20056;-44
2022/11/05 03:41:20;;;;;;;0.68;0.50;;;21.10;56.50;;;;;;5056275;28;20116;-44
2022/11/05 03:43:50;;;;;;;1.27;0.73;;;21.10;56.50;;;;;;5054746;28;20031;-44
2022/11/05 03:46:25;;;;;;;0.88;0.68;;;21.10;56.50;;;;;;5047463;28;20032;-44
2022/11/05 03:48:54;;;;;;;1.88;0.63;;;21.10;56.50;;;;;;5054503;28;20048;-44
2022/11/05 03:51:42;;;;;;;0.75;0.40;;;21.10;56.40;;;;;;5052056;28;20037;-44
2022/11/05 03:54:09;;;;;;;1.25;0.82;;;21.10;56.40;;;;;;5051959;28;20059;-48
2022/11/05 03:57:00;;;;;;;2.25;0.60;;;21.10;56.50;;;;;;5052442;28;20020;-44
2022/11/05 03:59:27;;;;;;;0.52;0.52;;;21.10;56.50;;;;;;5054158;28;20481;-44
2022/11/05 04:01:53;;;;;;;1.52;0.65;;;21.10;56.50;;;;;;5054063;28;20528;-44
2022/11/05 04:04:19;;;;;;;0.77;0.60;;;21.10;56.50;;;;;;5052580;28;20024;-44
2022/11/05 04:14:57;;;;;;;1.08;0.60;;;21.10;56.50;;;;;;5062062;28;20100;-44
2022/11/05 04:17:22;;;;;;;1.63;0.80;;;21.10;56.50;;;;;;5057375;28;20103;-44
2022/11/05 04:25:20;;;;;;;0.82;0.70;;;21.10;56.50;;;;;;5061155;28;20040;-47
2022/11/05 04:27:46;;;;;;;0.90;0.63;;;21.10;56.60;;;;;;5063303;28;20021;-44
2022/11/05 04:30:17;;;;;;;0.73;0.70;;;21.10;56.60;;;;;;5056652;28;20100;-44
2022/11/05 04:33:10;;;;;;;1.60;0.60;;;21.10;56.60;;;;;;5060966;28;20051;-44
2022/11/05 04:35:41;;;;;;;0.82;0.68;;;21.10;56.60;;;;;;5062472;28;20417;-44
2022/11/05 04:38:10;;;;;;;1.20;0.60;;;21.10;56.60;;;;;;5059358;28;20025;-49
2022/11/05 04:40:36;;;;;;;0.40;0.40;;;21.10;56.60;;;;;;5052967;28;20466;-44
2022/11/05 04:43:02;;;;;;;0.93;0.57;;;21.10;56.60;;;;;;5053299;28;20473;-44
2022/11/05 04:45:30;;;;;;;0.90;0.55;;;21.10;56.60;;;;;;5052287;28;20104;-44
2022/11/05 04:47:56;;;;;;;1.08;0.63;;;21.10;56.60;;;;;;5041839;28;20068;-44
2022/11/05 04:50:22;;;;;;;0.60;0.50;;;21.10;56.70;;;;;;5051724;28;20071;-44
2022/11/05 04:52:47;;;;;;;0.85;0.50;;;21.00;56.70;;;;;;5057863;28;20021;-44
2022/11/05 04:55:13;;;;;;;0.50;0.30;;;21.00;56.60;;;;;;5060765;28;20013;-44
2022/11/05 04:57:38;;;;;;;0.60;0.40;;;21.10;56.70;;;;;;5062190;28;20158;-45
2022/11/05 05:00:06;;;;;;;0.73;0.63;;;21.00;56.60;;;;;;5061837;28;20024;-44
2022/11/05 05:02:32;;;;;;;0.40;0.40;;;21.10;56.80;;;;;;5057516;28;20036;-44
2022/11/05 05:04:58;;;;;;;0.60;0.40;;;21.00;56.60;;;;;;5060052;28;20026;-44
2022/11/05 05:07:24;;;;;;;0.88;0.50;;;21.10;56.80;;;;;;5056900;28;20016;-44
2022/11/05 05:09:50;;;;;;;0.52;0.52;;;21.00;56.70;;;;;;5061737;28;20025;-44
2022/11/05 05:12:16;;;;;;;0.90;0.45;;;21.10;56.70;;;;;;5060487;28;20246;-45
2022/11/05 05:14:41;;;;;;;0.57;0.40;;;21.10;56.70;;;;;;5060118;28;20052;-44
2022/11/05 05:17:07;;;;;;;0.60;0.50;;;21.00;56.60;;;;;;5057525;28;20428;-51
2022/11/05 05:21:37;;;;;;;0.45;0.40;;;21.00;56.60;;;;;;5060398;28;20125;-44
2022/11/05 05:22:18;;;;;;;0.55;0.40;;;21.00;56.60;;;;;;5059789;28;20025;-44
2022/11/05 05:24:43;;;;;;;2.15;0.57;;;21.00;56.60;;;;;;5060689;28;20742;-45
2022/11/05 05:27:09;;;;;;;0.80;0.60;;;21.00;56.60;;;;;;5060993;28;20368;-49
2022/11/05 05:29:34;;;;;;;0.50;0.40;;;21.00;56.60;;;;;;5060061;28;20020;-44
2022/11/05 05:32:00;;;;;;;0.80;0.60;;;21.00;56.60;;;;;;5063576;28;20454;-45
2022/11/05 05:34:26;;;;;;;0.82;0.60;;;21.00;56.50;;;;;;5051231;28;20788;-44
2022/11/05 05:36:51;;;;;;;0.80;0.45;;;21.00;56.50;;;;;;5051996;28;20144;-44
2022/11/05 05:39:17;;;;;;;0.75;0.50;;;21.00;56.60;;;;;;5050387;28;20029;-45
2022/11/05 05:41:42;;;;;;;1.02;0.50;;;21.00;56.60;;;;;;5052338;28;20470;-45
2022/11/05 05:44:08;;;;;;;0.93;0.60;;;21.00;56.60;;;;;;5057150;28;20146;-49
2022/11/05 05:46:33;;;;;;;0.60;0.55;;;21.00;56.60;;;;;;5058014;28;20032;-45
2022/11/05 05:48:59;;;;;;;0.90;0.50;;;21.00;56.60;;;;;;5059287;28;20518;-45
2022/11/05 05:51:24;;;;;;;0.40;0.40;;;21.00;56.70;;;;;;5058379;28;20028;-45
2022/11/05 05:53:52;;;;;;;0.75;0.45;;;21.00;56.70;;;;;;5057152;28;20469;-44
2022/11/05 05:56:19;;;;;;;0.68;0.50;;;21.10;56.80;;;;;;5059303;28;20024;-47
2022/11/05 05:58:46;;;;;;;1.23;0.63;;;21.10;56.80;;;;;;5060248;28;20021;-45
2022/11/05 06:01:14;;;;;;;1.42;0.70;;;21.10;57.10;;;;;;5055792;28;20025;-45
2022/11/05 06:03:39;;;;;;;0.70;0.65;;;21.10;57.30;;;;;;5061078;28;20020;-45
2022/11/05 06:06:07;;;;;;;0.88;0.50;;;21.10;57.30;;;;;;5058658;28;20023;-45
2022/11/05 06:08:33;;;;;;;2.05;0.60;;;21.10;57.40;;;;;;5061388;28;20016;-44
2022/11/05 06:10:59;;;;;;;0.60;0.50;;;21.10;57.40;;;;;;5053691;28;20029;-45
2022/11/05 06:13:25;;;;;;;0.93;0.57;;;21.10;57.40;;;;;;5050338;28;20029;-44
2022/11/05 06:15:51;;;;;;;1.15;0.63;;;21.10;57.40;;;;;;5049600;28;20032;-47
2022/11/05 06:18:17;;;;;;;0.70;0.50;;;21.10;57.40;;;;;;5050767;28;20051;-44
2022/11/05 06:20:43;;;;;;;0.82;0.70;;;21.10;57.40;;;;;;5051432;28;20021;-44
2022/11/05 06:23:08;;;;;;;0.68;0.68;;;21.20;57.50;;;;;;5051440;28;20413;-49
2022/11/05 06:25:34;;;;;;;0.43;0.40;;;21.20;57.50;;;;;;5050845;28;20131;-45
2022/11/05 06:28:00;;;;;;;1.23;0.65;;;21.20;57.40;;;;;;5051946;28;20021;-44
2022/11/05 06:30:25;;;;;;;1.17;0.63;;;21.20;58.10;;;;;;5035363;28;20157;-44
2022/11/05 06:32:51;;;;;;;1.05;0.68;;;21.20;57.40;;;;;;5049664;28;20041;-44
2022/11/05 06:35:17;;;;;;;1.33;0.60;;;21.20;57.70;;;;;;5043225;28;20041;-45
2022/11/05 06:37:42;;;;;;;0.70;0.43;;;21.20;57.40;;;;;;5048682;28;20029;-47
2022/11/05 06:40:08;;;;;;;2.55;0.75;;;21.20;57.30;;;;;;5041621;28;20036;-50
2022/11/05 06:42:34;;;;;;;0.60;0.60;;;21.30;57.30;;;;;;5049175;28;20025;-44
2022/11/05 06:45:00;;;;;;;0.93;0.60;;;21.30;57.20;;;;;;5045617;28;20091;-44
2022/11/05 06:47:25;;;;;;;1.98;1.25;;;21.40;57.10;;;;;;5044973;28;20517;-44
2022/11/05 06:49:51;;;;;;;2.40;1.70;;;21.30;55.70;;;;;;5041029;28;20044;-44
2022/11/05 06:52:17;;;;;;;3.75;2.30;;;21.30;55.10;;;;;;5049753;28;20454;-44
2022/11/05 06:54:43;;;;;;;3.00;2.35;;;21.30;54.10;;;;;;5041006;28;20067;-45
2022/11/05 06:57:10;;;;;;;4.72;3.60;;;21.20;53.70;;;;;;5049971;28;20151;-50
2022/11/05 06:59:36;;;;;;;6.35;3.70;;;21.20;53.80;;;;;;5042364;28;20040;-44
2022/11/05 07:02:02;;;;;;;5.32;3.00;;;21.20;53.60;;;;;;5027356;28;20021;-45
2022/11/05 07:04:27;;;;;;;4.82;3.58;;;21.20;52.60;;;;;;5041310;28;20247;-44
2022/11/05 07:06:53;;;;;;;4.53;3.17;;;21.20;52.50;;;;;;5050340;28;20021;-44
2022/11/05 07:09:18;;;;;;;5.20;3.67;;;21.20;52.30;;;;;;5044322;28;20025;-44
2022/11/05 07:11:44;;;;;;;5.78;3.00;;;21.20;52.60;;;;;;5048805;28;20043;-45
2022/11/05 07:14:09;;;;;;;5.85;3.42;;;21.20;52.20;;;;;;5045253;28;20017;-46
2022/11/05 07:16:35;;;;;;;7.18;3.38;;;21.20;51.90;;;;;;5050528;28;20025;-44
2022/11/05 07:19:00;;;;;;;4.28;3.35;;;21.20;51.70;;;;;;5043987;28;20407;-45
2022/11/05 07:21:27;;;;;;;4.38;3.17;;;21.20;51.90;;;;;;5047495;28;20049;-45
2022/11/05 07:23:53;;;;;;;5.95;3.58;;;21.20;51.70;;;;;;5047134;28;20107;-44
2022/11/05 07:26:19;;;;;;;6.15;3.80;;;21.20;51.70;;;;;;5050318;28;20135;-44
2022/11/05 07:28:44;;;;;;;4.28;2.85;;;21.30;51.70;;;;;;5050751;28;20018;-45
2022/11/05 07:31:10;;;;;;;4.55;4.05;;;21.20;51.30;;;;;;5042384;28;20060;-49
2022/11/05 07:33:35;;;;;;;4.72;4.25;;;21.20;51.10;;;;;;5051040;28;20118;-44
2022/11/05 07:36:01;;;;;;;4.78;2.67;;;21.20;51.00;;;;;;5042912;28;20037;-45
2022/11/05 07:38:27;;;;;;;5.75;3.95;;;21.30;51.30;;;;;;5041401;28;20036;-46
2022/11/05 07:40:52;;;;;;;4.72;3.42;;;21.30;51.00;;;;;;5042725;28;20033;-44
2022/11/05 07:43:18;;;;;;;4.13;3.40;;;21.20;51.00;;;;;;5052353;28;20028;-44
2022/11/05 07:45:46;;;;;;;6.75;3.47;;;21.20;50.90;;;;;;5045445;28;20037;-45
2022/11/05 07:48:11;;;;;;;5.93;3.78;;;21.30;50.80;;;;;;5053044;28;20031;-50
2022/11/05 07:50:37;;;;;;;6.47;4.03;;;21.20;50.70;;;;;;5049334;28;20037;-45
2022/11/05 07:53:05;;;;;;;3.28;2.47;;;21.20;50.50;;;;;;5053655;28;20027;-44
2022/11/05 07:55:32;;;;;;;5.20;3.75;;;21.30;50.70;;;;;;5044111;28;20124;-44
2022/11/05 07:57:57;;;;;;;5.03;3.97;;;21.30;50.10;;;;;;5052767;28;20025;-45
2022/11/05 08:00:25;;;;;;;7.10;3.42;;;21.20;50.40;;;;;;5045003;28;20037;-44
2022/11/05 08:03:04;;;;;;;4.95;3.65;;;21.20;50.30;;;;;;5056657;28;20100;-45
2022/11/05 08:05:31;;;;;;;7.72;3.22;;;21.20;50.20;;;;;;5046168;28;20033;-44
2022/11/05 08:07:57;;;;;;;6.65;3.00;;;21.20;50.20;;;;;;5053198;28;20029;-44
2022/11/05 08:10:26;;;;;;;5.45;3.67;;;21.20;50.00;;;;;;5047516;28;20178;-44
2022/11/05 08:12:54;;;;;;;5.18;3.85;;;21.20;50.00;;;;;;5052393;28;20025;-44
2022/11/05 08:15:20;;;;;;;4.45;2.95;;;21.10;50.00;;;;;;5045100;28;20056;-44
2022/11/05 08:17:45;;;;;;;5.13;3.40;;;21.20;50.10;;;;;;5059526;28;20454;-44
2022/11/05 08:20:12;;;;;;;6.90;3.45;;;21.10;50.00;;;;;;5057837;28;20135;-46
2022/11/05 08:22:44;;;;;;;5.43;2.75;;;21.10;50.00;;;;;;5062744;28;20021;-45
2022/11/05 08:25:11;;;;;;;3.10;2.80;;;21.10;50.00;;;;;;5060733;28;20036;-49
2022/11/05 08:27:37;;;;;;;3.67;2.40;;;21.00;49.90;;;;;;5057900;28;20031;-44
2022/11/05 08:30:04;;;;;;;4.47;2.83;;;21.00;49.80;;;;;;5058426;28;20451;-48
2022/11/05 08:32:30;;;;;;;12.90;2.40;;;20.90;49.60;;;;;;5060672;28;20167;-45
2022/11/05 08:34:55;;;;;;;4.95;2.22;;;20.90;49.40;;;;;;5061551;28;20517;-45
2022/11/05 08:37:21;;;;;;;2.70;2.10;;;20.90;49.30;;;;;;5056470;28;20106;-46
2022/11/05 08:39:47;;;;;;;2.15;1.70;;;20.80;49.10;;;;;;5058822;28;20028;-45
2022/11/05 08:42:13;;;;;;;1.80;1.50;;;20.80;48.80;;;;;;5059819;28;20025;-45
2022/11/05 08:44:38;;;;;;;2.35;1.77;;;20.80;48.80;;;;;;5058253;28;20075;-44
2022/11/05 08:47:04;;;;;;;1.70;1.30;;;20.70;48.60;;;;;;5061446;28;20449;-45
2022/11/05 08:49:29;;;;;;;2.50;1.30;;;20.70;48.60;;;;;;5059809;28;20610;-44
2022/11/05 08:51:55;;;;;;;1.80;1.33;;;20.70;48.60;;;;;;5057512;28;20032;-45
2022/11/05 08:54:21;;;;;;;2.00;1.42;;;20.60;48.60;;;;;;5062863;28;20021;-45
2022/11/05 08:56:46;;;;;;;1.30;1.20;;;20.60;48.60;;;;;;5060673;28;20070;-45
2022/11/05 08:59:12;;;;;;;2.60;1.30;;;20.60;48.70;;;;;;5056861;28;20050;-49
2022/11/05 09:01:37;;;;;;;1.60;1.30;;;20.60;48.80;;;;;;5055508;28;20056;-44
2022/11/05 09:04:03;;;;;;;1.45;1.20;;;20.60;48.80;;;;;;5052843;28;20029;-44
2022/11/05 09:06:29;;;;;;;2.08;1.48;;;20.50;48.70;;;;;;5049702;28;20036;-44
2022/11/05 09:08:54;;;;;;;1.52;1.15;;;20.50;48.80;;;;;;5060622;28;20020;-44
2022/11/05 09:11:20;;;;;;;1.60;1.00;;;20.50;49.20;;;;;;5059121;28;20028;-45
2022/11/05 09:13:46;;;;;;;1.23;0.77;;;20.70;49.40;;;;;;5052609;28;20022;-44
2022/11/05 09:16:19;;;;;;;1.02;0.93;;;20.80;49.70;;;;;;5051531;28;20025;-45
2022/11/05 09:18:45;;;;;;;1.55;1.00;;;20.90;50.10;;;;;;5052916;28;20028;-44
2022/11/05 09:21:10;;;;;;;1.33;0.70;;;20.90;50.60;;;;;;5049229;28;20039;-49
2022/11/05 09:23:36;;;;;;;1.85;0.82;;;20.90;50.70;;;;;;5056934;28;20032;-45
2022/11/05 09:26:01;;;;;;;1.45;1.08;;;21.00;51.00;;;;;;5061891;28;20025;-45
2022/11/05 09:28:27;;;;;;;1.48;0.70;;;20.90;51.20;;;;;;5057548;28;20128;-45
2022/11/05 09:30:53;;;;;;;1.48;0.80;;;20.90;51.30;;;;;;5059796;28;20028;-44
2022/11/05 09:33:22;;;;;;;1.20;0.70;;;20.90;51.40;;;;;;5059499;28;20496;-42
2022/11/05 09:35:47;;;;;;;0.80;0.70;;;20.90;51.50;;;;;;5061135;28;20477;-44
2022/11/05 09:38:13;;;;;;;0.90;0.70;;;20.90;51.70;;;;;;5056733;28;20032;-45
2022/11/05 09:41:06;;;;;;;1.15;0.70;;;20.90;51.80;;;;;;5058238;28;20021;-45
2022/11/05 09:43:47;;;;;;;0.80;0.80;;;21.00;52.10;;;;;;5061036;28;20489;-44
2022/11/05 09:46:42;;;;;;;0.75;0.60;;;20.90;52.30;;;;;;5059305;28;20067;-45
2022/11/05 09:49:19;;;;;;;0.85;0.70;;;20.90;52.60;;;;;;5057464;28;20013;-49
2022/11/05 09:51:45;;;;;;;1.67;0.82;;;20.90;52.70;;;;;;5055250;28;20155;-45
2022/11/05 09:54:13;;;;;;;1.77;0.70;;;20.90;52.60;;;;;;5061296;28;20139;-49
2022/11/05 09:56:40;;;;;;;0.60;0.60;;;21.00;53.10;;;;;;5060817;28;20017;-49
2022/11/05 09:59:26;;;;;;;2.13;0.93;;;20.90;53.00;;;;;;5062063;28;20095;-44
2022/11/05 10:02:08;;;;;;;1.23;1.10;;;20.90;52.90;;;;;;5060530;28;20043;-44
2022/11/05 10:04:34;;;;;;;;;;;20.90;53.10;;;;;;5054255;28;20447;-44
2022/11/05 10:07:04;;;;;;;1.30;1.00;;;20.90;53.20;;;;;;5059651;28;19901;-46
2022/11/05 10:09:42;;;;;;;1.75;0.80;;;20.90;53.30;;;;;;5060612;28;20029;-44
2022/11/05 10:12:23;;;;;;;0.80;0.68;;;20.90;53.40;;;;;;5058192;28;20466;-45
2022/11/05 10:15:20;;;;;;;2.55;1.00;;;20.90;53.40;;;;;;5059992;28;20025;-44
2022/11/05 10:17:52;;;;;;;1.05;0.73;;;21.00;53.60;;;;;;5041017;28;20041;-45
2022/11/05 10:20:38;;;;;;;;;;;20.90;53.50;;;;;;5055256;28;20129;-44
2022/11/05 10:23:15;;;;;;;1.23;1.13;;;21.00;53.50;;;;;;5056604;28;19911;-44
2022/11/05 10:25:45;;;;;;;1.95;0.80;;;20.90;53.60;;;;;;5051389;28;20025;-45
2022/11/05 10:28:18;;;;;;;4.20;1.00;;;20.90;53.60;;;;;;5056194;28;20055;-50
2022/11/05 10:30:47;;;;;;;1.50;1.17;;;21.00;53.70;;;;;;5057827;28;20033;-45
2022/11/05 10:33:21;;;;;;;2.47;1.42;;;21.00;53.80;;;;;;5060335;28;20048;-45
2022/11/05 10:35:52;;;;;;;2.28;1.00;;;20.90;53.90;;;;;;5060249;28;20029;-45
2022/11/05 10:38:18;;;;;;;2.05;0.85;;;20.90;53.80;;;;;;5051187;28;20017;-45
2022/11/05 10:41:10;;;;;;;3.13;0.90;;;20.90;53.80;;;;;;5051219;28;20044;-45
2022/11/05 10:43:43;;;;;;;3.03;1.20;;;20.90;54.10;;;;;;5050436;28;20032;-45
2022/11/05 10:46:34;;;;;;;7.40;1.15;;;21.00;54.20;;;;;;5047240;28;20037;-47
2022/11/05 10:49:17;;;;;;;3.00;1.17;;;20.90;54.20;;;;;;5045683;28;20025;-46
2022/11/05 10:51:44;;;;;;;2.15;1.00;;;20.90;54.20;;;;;;5051652;28;20087;-45
2022/11/05 10:54:18;;;;;;;2.35;1.55;;;20.90;54.30;;;;;;5032861;28;20112;-50
2022/11/05 10:56:43;;;;;;;10.60;1.42;;;20.90;54.80;;;;;;5045933;28;20040;-45
2022/11/05 10:59:27;;;;;;;3.80;1.08;;;20.90;54.80;;;;;;5046753;28;20037;-50
2022/11/05 11:02:14;;;;;;;1.70;1.10;;;21.00;54.80;;;;;;5049809;28;20082;-45
2022/11/05 11:04:40;;;;;;;5.35;2.17;;;21.00;55.20;;;;;;5053841;28;20027;-45
2022/11/05 11:07:20;;;;;;;2.42;1.75;;;21.10;55.00;;;;;;5047561;28;20037;-45
2022/11/05 11:09:48;;;;;;;4.13;1.45;;;21.10;55.10;;;;;;5045362;28;20067;-45
2022/11/05 11:12:19;;;;;;;4.47;1.20;;;21.10;55.00;;;;;;5050184;28;20027;-46
2022/11/05 11:15:04;;;;;;;3.63;0.97;;;21.20;55.30;;;;;;5053305;28;20041;-44
2022/11/05 11:17:31;;;;;;;1.92;1.33;;;21.20;55.40;;;;;;5053471;28;20280;-45
2022/11/05 11:20:21;;;;;;;3.10;0.90;;;21.20;55.20;;;;;;5060813;28;20032;-44
2022/11/05 11:23:13;;;;;;;2.88;1.20;;;21.20;55.20;;;;;;5058684;28;20024;-45
2022/11/05 11:25:38;;;;;;;5.63;1.05;;;21.20;55.10;;;;;;5049882;28;20103;-45
2022/11/05 11:28:10;;;;;;;5.45;1.10;;;21.20;55.90;;;;;;5059256;28;20075;-45
2022/11/05 11:30:36;;;;;;;2.10;0.93;;;21.20;55.30;;;;;;5054317;28;20071;-44
2022/11/05 11:33:08;;;;;;;3.10;1.00;;;21.10;55.30;;;;;;5036000;28;20068;-47
2022/11/05 11:35:36;;;;;;;4.90;1.20;;;21.10;55.30;;;;;;5047034;28;20029;-45
2022/11/05 11:38:03;;;;;;;3.70;1.63;;;21.10;55.40;;;;;;5044613;28;20029;-44
2022/11/05 11:40:35;;;;;;;3.13;1.58;;;21.10;55.50;;;;;;5049891;28;20790;-45
2022/11/05 11:43:05;;;;;;;2.55;1.27;;;21.10;55.60;;;;;;5048896;28;20029;-47
2022/11/05 11:45:57;;;;;;;2.25;1.40;;;21.10;55.60;;;;;;5050661;28;20033;-45
2022/11/05 11:48:32;;;;;;;3.22;1.30;;;21.10;55.70;;;;;;5043476;28;20036;-44
2022/11/05 11:50:58;;;;;;;4.38;1.52;;;21.10;55.80;;;;;;5053527;28;20057;-44
2022/11/05 11:53:28;;;;;;;2.08;1.27;;;21.20;55.80;;;;;;5050683;28;20119;-44
2022/11/05 11:55:53;;;;;;;3.53;1.15;;;21.20;55.60;;;;;;5051904;28;20070;-44
2022/11/05 11:58:33;;;;;;;1.88;1.27;;;21.30;55.80;;;;;;5043649;28;20041;-44
2022/11/05 12:01:16;;;;;;;2.35;1.30;;;21.30;55.70;;;;;;5043316;28;20028;-44
2022/11/05 12:04:06;;;;;;;2.92;1.00;;;21.30;55.50;;;;;;5051599;28;20029;-43
2022/11/05 12:06:55;;;;;;;2.28;1.60;;;21.40;55.80;;;;;;5043909;28;20041;-45
2022/11/05 12:09:28;;;;;;;3.97;1.73;;;21.50;55.80;;;;;;5048369;28;20482;-44
2022/11/05 12:12:12;;;;;;;2.97;1.33;;;21.50;55.60;;;;;;5043050;28;20033;-44
2022/11/05 12:14:41;;;;;;;2.15;1.20;;;21.50;55.70;;;;;;5041578;28;20041;-44
2022/11/05 12:17:48;;;;;;;2.65;2.08;;;21.50;55.60;;;;;;5047148;28;20028;-47
2022/11/05 12:20:36;;;;;;;2.83;1.42;;;21.60;56.30;;;;;;5051087;28;20455;-45
2022/11/05 12:23:27;;;;;;;2.38;1.40;;;21.60;56.50;;;;;;5041600;28;20079;-45
2022/11/05 12:26:17;;;;;;;5.22;2.00;;;21.60;56.70;;;;;;5050700;28;20021;-44
2022/11/05 12:28:53;;;;;;;3.53;1.10;;;21.70;56.60;;;;;;5048694;28;20086;-44
2022/11/05 12:32:07;;;;;;;3.58;1.33;;;21.70;56.60;;;;;;5051045;28;21015;-44
2022/11/05 12:34:52;;;;;;;1.77;1.50;;;21.70;56.60;;;;;;5004015;28;20056;-44
2022/11/05 12:37:34;;;;;;;2.60;1.40;;;21.80;57.50;;;;;;5046091;28;20029;-44
2022/11/05 12:40:22;;;;;;;2.78;1.27;;;21.80;57.60;;;;;;5038872;28;20083;-44
2022/11/05 12:43:01;;;;;;;3.78;1.40;;;21.80;57.60;;;;;;5051078;28;20017;-44
2022/11/05 12:45:41;;;;;;;1.80;1.05;;;21.80;57.60;;;;;;5049262;28;20023;-44
2022/11/05 12:48:14;;;;;;;2.63;1.23;;;21.80;57.70;;;;;;5040457;28;20032;-45
2022/11/05 12:50:45;;;;;;;5.07;1.63;;;21.80;57.70;;;;;;5051688;28;20539;-45
2022/11/05 12:53:16;;;;;;;2.75;1.27;;;21.80;57.60;;;;;;5050448;28;20008;-49
2022/11/05 12:55:45;;;;;;;2.83;1.40;;;21.80;57.50;;;;;;5051240;28;20067;-44
2022/11/05 12:58:25;;;;;;;2.53;1.40;;;21.80;57.30;;;;;;5044302;28;20036;-50
2022/11/05 13:00:57;;;;;;;2.80;1.50;;;21.80;57.50;;;;;;5051908;28;20025;-44
2022/11/05 13:03:43;;;;;;;2.17;1.60;;;21.80;57.40;;;;;;5049470;28;20029;-44
2022/11/05 13:06:13;;;;;;;2.22;1.50;;;21.80;57.00;;;;;;5046103;28;20070;-49
2022/11/05 13:08:50;;;;;;;4.03;1.45;;;21.90;57.20;;;;;;5046570;28;20033;-44
2022/11/05 13:11:37;;;;;;;2.95;1.10;;;21.80;57.20;;;;;;5052411;28;20029;-44
2022/11/05 13:14:14;;;;;;;2.50;1.20;;;21.90;57.20;;;;;;5044075;28;20056;-44
2022/11/05 13:16:46;;;;;;;2.75;1.48;;;21.90;57.00;;;;;;5044929;28;20021;-44
2022/11/05 13:19:33;;;;;;;5.18;1.42;;;21.80;56.90;;;;;;5058395;28;20028;-49
2022/11/05 13:22:08;;;;;;;5.72;1.33;;;21.70;57.10;;;;;;5057458;28;20059;-44
2022/11/05 13:24:39;;;;;;;3.30;1.55;;;21.70;57.30;;;;;;5039569;28;20032;-44
2022/11/05 13:27:27;;;;;;;2.92;1.30;;;21.70;57.30;;;;;;5045093;28;20501;-44
2022/11/05 13:30:00;;;;;;;3.55;1.42;;;21.60;57.40;;;;;;5044002;28;20029;-47
2022/11/05 13:32:35;;;;;;;4.50;1.30;;;21.60;57.50;;;;;;5052091;28;20045;-44
2022/11/05 13:35:03;;;;;;;6.20;2.00;;;21.60;57.40;;;;;;5051978;28;20105;-44
2022/11/05 13:40:37;;;;;;;5.38;1.40;;;21.50;57.50;;;;;;5046562;28;20016;-44
2022/11/05 13:43:21;;;;;;;3.63;1.63;;;21.50;57.50;;;;;;5052528;28;20021;-45
2022/11/05 13:46:08;;;;;;;4.93;1.75;;;21.50;57.70;;;;;;5052288;28;20012;-44
2022/11/05 13:48:51;;;;;;;4.18;1.48;;;21.40;57.80;;;;;;5058021;28;20021;-44
2022/11/05 13:51:26;;;;;;;5.47;1.50;;;21.50;58.30;;;;;;5051335;28;20059;-48
2022/11/05 13:53:51;;;;;;;4.05;1.35;;;21.50;58.00;;;;;;5059120;28;20028;-47
2022/11/05 13:56:51;;;;;;;4.35;1.40;;;21.40;58.00;;;;;;5055612;28;20035;-45